Aeroporto :
LOGIN :

Iscrizione | Disclaimer

   EN    FR    IT 

 










Sommario :    VFR   VFR Marginale   IFR   IFR Intensivo   IFR Molto Intensivo
Visibilità : 
Base nubi : 
>= 8 km
>= 3000ft
5 / 8 km
1000 / 3000 ft
1500m / 5 km
500 / 1000 ft
800 / 1500m
200 / 500 ft
< 800m
< 200 ft
Simboli :   Temporali  Nebbia  Neve Forte  Precipitazioni Forti  Vento > 20 kt
SIGMETs :   Varie  Temporali  Ghiacco  Turbolenza  Onda orograficha  Ceneri Vulcaniche







- Altitudine del aeroporto : 2776 ft
- Codice IATA : VLL


LEVD - Valladolid

ULTIMO METAR :
  • 252030Z 05016KT CAVOK 06/M03 Q1022

METARs OBSOLETI :
  • 252000Z 05016KT CAVOK 07/M02 Q1022
  • 251930Z 05018KT CAVOK 08/M02 Q1022
  • 251900Z 05015KT CAVOK 08/M01 Q1021

TAF TAF LEVD
Valido dal 25 a 18 ore il 26 a 18 ore UTC


251700Z 2518/2618 05018KT CAVOK TX17/2615Z TN03/2603Z
PROB40
TEMPO 2518/2618 05018G28KT
Nessun NOTAM noto per questo aeroporto.
1 SIGMET conosciuto per la FIR Madrid (LECM) :
 
Turbolenza severa
LECM SIGMET 1 VALID 252015/260000 LEVA
LECM MADRID FIR/UIR SEV TURB FCST WI N3936 W00730 - N3955 W00103 - N3903 W00119 - N3849 W00702 - N3936 W00730 FL220/300 STNR WKN=



MetMap, La meteo Aeronautica in un colpo d'occhio ! - Copyright ORBIFLY Dicembre 2007 - Disclaimer

ORBIFLY MET'MAP TEAM :

Programmazione e sviluppo : Alexandra Zaïnal
Concezione e sviluppo : Baudouin d'Aumeries
Co-Programmazione e sviluppo : Marc-Olivier Méhu
Supporto tecnico e logistico : Manuel Goepfert
Aiuto per la traduzione : Arnaldo La Scala

Contatto : metmap@orbifly.com




FONTI E CREDITI :

   NOAA